Time;durP1;ratioP1;P1;durP2;ratioP2;P2;SDS_P1;SDS_P2;PMS_P1;PMS_P2;Temp;Humidity;BMP_temperature;BMP_pressure;BME280_temperature;BME280_humidity;BME280_pressure;Samples;Min_cycle;Max_cycle;Signal;HPM_P1;HPM_P2
2021/06/28 00:01:01;;;;;;;8.18;6.30;;;20.70;88.00;;;;;;4855050;29;20036;-80
2021/06/28 00:03:27;;;;;;;7.68;6.88;;;20.70;88.50;;;;;;4851860;29;20036;-79
2021/06/28 00:05:52;;;;;;;7.38;5.97;;;20.60;89.50;;;;;;4856505;29;20030;-80
2021/06/28 00:08:18;;;;;;;7.38;6.63;;;20.50;90.10;;;;;;4856112;29;20527;-80
2021/06/28 00:10:44;;;;;;;9.02;6.03;;;20.50;90.50;;;;;;4852511;29;20128;-80
2021/06/28 00:13:09;;;;;;;12.52;6.45;;;20.50;91.00;;;;;;4855527;29;20102;-80
2021/06/28 00:15:37;;;;;;;7.28;6.40;;;20.50;91.50;;;;;;4854659;29;20041;-80
2021/06/28 00:18:05;;;;;;;8.05;6.25;;;20.40;91.80;;;;;;4851941;29;20120;-78
2021/06/28 00:20:33;;;;;;;6.70;6.00;;;20.40;92.20;;;;;;4854007;29;20103;-79
2021/06/28 00:22:59;;;;;;;7.22;6.53;;;20.40;92.60;;;;;;4852138;29;20096;-80
2021/06/28 00:25:24;;;;;;;7.18;5.93;;;20.40;93.00;;;;;;4853200;29;20501;-82
2021/06/28 00:27:51;;;;;;;9.05;6.15;;;20.30;93.50;;;;;;4855130;29;20112;-82
2021/06/28 00:30:19;;;;;;;6.82;6.13;;;20.30;94.00;;;;;;4849041;29;20080;-83
2021/06/28 00:32:46;;;;;;;6.93;5.80;;;20.30;94.40;;;;;;4854521;29;20030;-79
2021/06/28 00:35:12;;;;;;;6.72;5.93;;;20.20;95.00;;;;;;4857319;29;20029;-82
2021/06/28 00:37:38;;;;;;;5.95;5.20;;;20.20;95.30;;;;;;4857306;29;20040;-79
2021/06/28 00:40:07;;;;;;;7.47;6.22;;;20.20;95.40;;;;;;4858232;29;20132;-82
2021/06/28 00:42:32;;;;;;;6.97;6.32;;;20.20;95.80;;;;;;4855880;29;20734;-80
2021/06/28 00:44:58;;;;;;;7.57;6.47;;;20.20;96.30;;;;;;4858384;29;20041;-79
2021/06/28 00:47:24;;;;;;;7.78;6.53;;;20.10;96.60;;;;;;4858289;29;20124;-80
2021/06/28 00:49:49;;;;;;;6.80;5.78;;;20.50;97.00;;;;;;4860332;29;20474;-79
2021/06/28 00:52:15;;;;;;;7.57;6.72;;;20.10;97.20;;;;;;4859537;29;20235;-79
2021/06/28 00:54:42;;;;;;;7.78;6.97;;;20.10;97.50;;;;;;4857890;29;20207;-79
2021/06/28 00:57:08;;;;;;;6.90;6.20;;;20.10;97.70;;;;;;4857492;29;20058;-78
2021/06/28 00:59:34;;;;;;;10.73;6.72;;;20.00;98.00;;;;;;4857714;29;20036;-79
2021/06/28 01:02:02;;;;;;;6.70;6.05;;;19.90;98.20;;;;;;4857992;29;20033;-78
2021/06/28 01:04:31;;;;;;;6.65;5.88;;;19.90;98.40;;;;;;4857665;29;20029;-79
2021/06/28 01:06:57;;;;;;;7.00;6.40;;;19.90;98.70;;;;;;4859323;29;20145;-78
2021/06/28 01:09:24;;;;;;;9.90;6.65;;;20.00;98.80;;;;;;4859975;29;20796;-82
2021/06/28 01:11:50;;;;;;;6.45;5.85;;;19.90;98.90;;;;;;4855285;29;20030;-79
2021/06/28 01:14:16;;;;;;;8.88;7.80;;;19.90;99.10;;;;;;4857278;29;20048;-79
2021/06/28 01:16:43;;;;;;;7.50;6.70;;;19.80;99.30;;;;;;4855691;29;20725;-77
2021/06/28 01:19:14;;;;;;;7.13;6.20;;;19.80;99.60;;;;;;4858187;29;20165;-76
2021/06/28 01:21:44;;;;;;;7.47;6.65;;;19.80;99.80;;;;;;4858090;29;20495;-77
2021/06/28 01:24:11;;;;;;;9.67;6.53;;;19.70;99.90;;;;;;4856696;29;20166;-76
2021/06/28 01:26:36;;;;;;;8.38;6.53;;;19.80;99.90;;;;;;4857079;29;20037;-76
2021/06/28 01:29:03;;;;;;;7.03;6.43;;;19.70;99.90;;;;;;4857818;29;20033;-76
2021/06/28 01:31:28;;;;;;;8.00;6.40;;;19.70;99.90;;;;;;4856255;29;20314;-78
2021/06/28 01:33:54;;;;;;;7.75;6.78;;;19.70;99.90;;;;;;4853933;29;20069;-78
2021/06/28 01:36:19;;;;;;;7.82;7.03;;;19.60;99.90;;;;;;4856240;29;20040;-79
2021/06/28 01:38:45;;;;;;;6.85;6.25;;;19.60;99.90;;;;;;4855367;29;20044;-79
2021/06/28 01:41:11;;;;;;;9.55;6.72;;;19.60;99.90;;;;;;4855007;29;20037;-78
2021/06/28 01:43:37;;;;;;;7.93;7.03;;;19.60;99.90;;;;;;4855593;29;20033;-78
2021/06/28 01:46:02;;;;;;;7.60;6.70;;;19.60;99.90;;;;;;4854526;29;20113;-78
2021/06/28 01:48:28;;;;;;;9.60;7.30;;;19.60;99.90;;;;;;4855189;29;20025;-79
2021/06/28 01:50:54;;;;;;;8.27;6.85;;;19.50;99.90;;;;;;4857353;29;20093;-78
2021/06/28 01:53:19;;;;;;;8.23;6.85;;;19.40;99.90;;;;;;4858536;29;20431;-79
2021/06/28 01:55:45;;;;;;;7.20;6.38;;;19.40;99.90;;;;;;4856247;29;20029;-78
2021/06/28 01:58:14;;;;;;;8.00;6.97;;;19.40;99.90;;;;;;4855530;29;20049;-79
2021/06/28 02:00:43;;;;;;;7.57;6.65;;;19.40;99.90;;;;;;4854012;29;20035;-78
2021/06/28 02:03:17;;;;;;;7.78;6.97;;;19.30;99.90;;;;;;4854588;29;20112;-78
2021/06/28 02:05:49;;;;;;;8.93;6.95;;;19.30;99.90;;;;;;4853517;29;20478;-78
2021/06/28 02:08:21;;;;;;;7.90;7.10;;;19.30;99.90;;;;;;4857036;29;20034;-78
2021/06/28 02:10:52;;;;;;;7.07;6.38;;;19.30;99.90;;;;;;4860764;29;20037;-78
2021/06/28 02:13:19;;;;;;;8.02;6.53;;;19.30;99.90;;;;;;4859635;29;20041;-77
2021/06/28 02:15:45;;;;;;;8.55;6.85;;;19.20;99.90;;;;;;4859157;29;20483;-77
2021/06/28 02:18:11;;;;;;;9.23;7.45;;;19.20;99.90;;;;;;4858334;29;20037;-76
2021/06/28 02:20:37;;;;;;;8.90;7.03;;;19.20;99.90;;;;;;4858846;29;20125;-76
2021/06/28 02:23:23;;;;;;;9.25;8.20;;;19.20;99.90;;;;;;4857968;29;20033;-76
2021/06/28 02:25:56;;;;;;;9.40;6.93;;;19.20;99.90;;;;;;4857869;29;20044;-77
2021/06/28 02:28:27;;;;;;;7.97;7.18;;;19.00;99.90;;;;;;4857726;29;20065;-77
2021/06/28 02:30:53;;;;;;;8.15;6.80;;;19.10;99.90;;;;;;4858699;29;20036;-76
2021/06/28 02:33:20;;;;;;;7.43;6.68;;;19.00;99.90;;;;;;4856172;29;20497;-76
2021/06/28 02:35:45;;;;;;;8.35;6.95;;;19.00;99.90;;;;;;4857279;29;20041;-76
2021/06/28 02:38:12;;;;;;;8.00;7.20;;;19.00;99.90;;;;;;4859807;29;20486;-76
2021/06/28 02:40:37;;;;;;;9.38;7.20;;;19.00;99.90;;;;;;4858689;29;20057;-77
2021/06/28 02:43:03;;;;;;;9.07;7.88;;;19.00;99.90;;;;;;4859033;29;20049;-76
2021/06/28 02:45:29;;;;;;;8.38;7.57;;;19.00;99.90;;;;;;4858992;29;20044;-76
2021/06/28 02:47:55;;;;;;;7.20;6.40;;;;;;;;;;4864997;29;20058;-77
2021/06/28 02:50:20;;;;;;;9.73;7.13;;;18.90;99.90;;;;;;4858854;29;20088;-78
2021/06/28 02:52:46;;;;;;;8.23;7.43;;;18.90;99.90;;;;;;4861131;29;20040;-78
2021/06/28 02:55:12;;;;;;;8.55;7.20;;;18.90;99.90;;;;;;4858594;29;20032;-78
2021/06/28 02:57:38;;;;;;;10.02;6.65;;;18.90;99.90;;;;;;4858441;29;20053;-78
2021/06/28 03:00:22;;;;;;;9.68;7.28;;;18.80;99.90;;;;;;4859090;29;20030;-77
2021/06/28 03:02:47;;;;;;;8.55;7.00;;;18.90;99.90;;;;;;4858689;29;20082;-78
2021/06/28 03:05:13;;;;;;;9.20;7.13;;;18.80;99.90;;;;;;4861347;29;20463;-78
2021/06/28 03:07:39;;;;;;;10.85;7.65;;;18.80;99.90;;;;;;4858752;29;20567;-78
2021/06/28 03:10:08;;;;;;;10.45;8.30;;;18.70;99.90;;;;;;4860527;29;20033;-78
2021/06/28 03:12:33;;;;;;;9.25;8.35;;;18.80;99.90;;;;;;4858222;29;20436;-78
2021/06/28 03:14:59;;;;;;;9.55;7.47;;;18.70;99.90;;;;;;4857905;29;20030;-78
2021/06/28 03:17:25;;;;;;;8.57;7.20;;;18.70;99.90;;;;;;4858387;29;20037;-76
2021/06/28 03:19:50;;;;;;;8.98;7.43;;;18.70;99.90;;;;;;4859704;29;20055;-78
2021/06/28 03:22:16;;;;;;;8.38;7.35;;;18.70;99.90;;;;;;4857651;29;20530;-77
2021/06/28 03:24:43;;;;;;;8.57;7.10;;;18.60;99.90;;;;;;4860706;29;20044;-76
2021/06/28 03:27:08;;;;;;;10.45;7.30;;;18.60;99.90;;;;;;4858227;29;20033;-76
2021/06/28 03:29:34;;;;;;;8.63;7.60;;;18.70;99.90;;;;;;4858033;29;20386;-76
2021/06/28 03:32:00;;;;;;;9.77;7.90;;;18.70;99.90;;;;;;4857696;29;20053;-76
2021/06/28 03:34:25;;;;;;;8.65;7.07;;;18.60;99.90;;;;;;4857820;29;20248;-76
2021/06/28 03:36:51;;;;;;;10.18;7.55;;;18.70;99.90;;;;;;4860618;29;20108;-76
2021/06/28 03:39:16;;;;;;;9.38;7.53;;;18.70;99.90;;;;;;4859815;29;20064;-76
2021/06/28 03:41:42;;;;;;;9.10;7.63;;;18.70;99.90;;;;;;4856990;29;20036;-76
2021/06/28 03:44:07;;;;;;;10.02;7.35;;;18.60;99.90;;;;;;4858566;29;20029;-77
2021/06/28 03:46:33;;;;;;;8.20;7.40;;;18.70;99.90;;;;;;4862674;29;20037;-76
2021/06/28 03:48:58;;;;;;;7.93;7.13;;;18.70;99.90;;;;;;4862612;29;20089;-77
2021/06/28 03:51:24;;;;;;;9.20;8.27;;;18.70;99.90;;;;;;4862032;29;20037;-77
2021/06/28 03:53:51;;;;;;;24.42;12.50;;;18.70;99.90;;;;;;4860919;29;20037;-76
2021/06/28 03:56:17;;;;;;;10.40;8.38;;;18.70;99.90;;;;;;4860886;29;20040;-77
2021/06/28 03:58:44;;;;;;;11.52;8.35;;;18.80;99.90;;;;;;4861572;29;20042;-76
2021/06/28 04:01:10;;;;;;;9.43;7.95;;;18.90;99.90;;;;;;4860131;29;20034;-76
2021/06/28 04:03:37;;;;;;;9.85;7.45;;;18.90;99.90;;;;;;4861917;29;20040;-77
2021/06/28 04:06:07;;;;;;;9.75;8.10;;;19.00;99.90;;;;;;4861067;29;20082;-76
2021/06/28 04:08:34;;;;;;;9.48;7.95;;;19.00;99.90;;;;;;4860627;29;20056;-77
2021/06/28 04:11:00;;;;;;;8.80;7.38;;;19.00;99.90;;;;;;4859224;29;20564;-76
2021/06/28 04:13:26;;;;;;;8.13;7.15;;;19.10;99.90;;;;;;4859475;29;20045;-76
2021/06/28 04:15:52;;;;;;;9.57;7.82;;;19.10;99.90;;;;;;4863663;29;20555;-76
2021/06/28 04:18:18;;;;;;;8.10;7.30;;;19.20;99.90;;;;;;4859970;29;20017;-76
2021/06/28 04:20:44;;;;;;;8.68;6.97;;;19.20;99.90;;;;;;4859192;29;20033;-76
2021/06/28 04:23:09;;;;;;;9.93;7.63;;;19.30;99.90;;;;;;4858430;29;20037;-76
2021/06/28 04:25:35;;;;;;;8.00;7.20;;;19.40;99.90;;;;;;4858646;29;20037;-76
2021/06/28 04:28:01;;;;;;;9.77;7.10;;;19.40;99.90;;;;;;4858027;29;20049;-76
2021/06/28 04:30:27;;;;;;;11.82;7.13;;;19.50;99.90;;;;;;4859486;29;20033;-77
2021/06/28 04:32:53;;;;;;;8.50;7.70;;;19.50;99.90;;;;;;4857671;29;20092;-76
2021/06/28 04:35:23;;;;;;;8.57;7.63;;;19.50;99.90;;;;;;4857708;29;20571;-76
2021/06/28 04:37:50;;;;;;;9.98;7.35;;;19.60;99.90;;;;;;4858460;29;20078;-77
2021/06/28 04:40:18;;;;;;;8.57;7.50;;;19.70;99.90;;;;;;4856361;29;20866;-76
2021/06/28 04:42:44;;;;;;;9.70;7.90;;;19.80;99.90;;;;;;4856395;29;20077;-76
2021/06/28 04:45:11;;;;;;;9.63;8.63;;;20.00;99.90;;;;;;4857338;29;20033;-76
2021/06/28 04:47:37;;;;;;;12.18;7.13;;;20.00;99.90;;;;;;4855998;29;20036;-75
2021/06/28 04:50:05;;;;;;;8.27;7.30;;;20.00;99.90;;;;;;4856235;29;20415;-77
2021/06/28 04:52:32;;;;;;;8.48;6.65;;;20.00;99.90;;;;;;4855795;29;20459;-76
2021/06/28 04:54:59;;;;;;;10.48;7.38;;;20.10;99.90;;;;;;4854110;29;20033;-76
2021/06/28 04:57:25;;;;;;;9.35;7.93;;;20.20;99.90;;;;;;4855977;29;20061;-76
2021/06/28 04:59:51;;;;;;;10.82;8.27;;;20.30;99.90;;;;;;4856090;29;20021;-77
2021/06/28 05:02:17;;;;;;;12.77;7.90;;;20.40;99.90;;;;;;4854629;29;20085;-77
2021/06/28 05:04:42;;;;;;;10.55;8.10;;;20.50;99.90;;;;;;4855794;29;20057;-76
2021/06/28 05:07:08;;;;;;;10.63;8.07;;;20.70;99.90;;;;;;4854599;29;20447;-77
2021/06/28 05:09:33;;;;;;;10.95;7.63;;;20.90;99.90;;;;;;4852526;29;20156;-78
2021/06/28 05:11:59;;;;;;;19.27;8.95;;;20.90;99.90;;;;;;4837870;29;20112;-77
2021/06/28 05:14:26;;;;;;;14.48;8.23;;;21.00;99.90;;;;;;4857252;29;20033;-78
2021/06/28 05:16:53;;;;;;;12.48;8.10;;;21.20;99.90;;;;;;4854413;29;20034;-77
2021/06/28 05:19:18;;;;;;;11.10;8.00;;;21.30;99.30;;;;;;4855365;29;20491;-77
2021/06/28 05:21:44;;;;;;;14.02;8.40;;;21.30;99.20;;;;;;4854209;29;20045;-77
2021/06/28 05:24:10;;;;;;;15.15;8.90;;;21.40;99.20;;;;;;4856062;29;20045;-77
2021/06/28 05:26:35;;;;;;;14.88;9.50;;;21.40;99.10;;;;;;4856619;29;20021;-76
2021/06/28 05:29:01;;;;;;;9.02;8.05;;;21.60;99.00;;;;;;4854561;29;20089;-76
2021/06/28 05:31:27;;;;;;;12.10;7.35;;;21.60;99.00;;;;;;4856843;29;20659;-75
2021/06/28 05:33:53;;;;;;;10.13;7.15;;;21.70;98.80;;;;;;4860197;29;20035;-75
2021/06/28 05:36:18;;;;;;;8.50;7.05;;;21.80;98.20;;;;;;4854527;29;20045;-75
2021/06/28 05:38:44;;;;;;;10.93;7.18;;;22.10;97.20;;;;;;4857093;29;20029;-75
2021/06/28 05:41:10;;;;;;;8.25;6.35;;;22.10;97.30;;;;;;4858684;29;20528;-75
2021/06/28 05:43:35;;;;;;;13.02;6.65;;;22.20;97.00;;;;;;4857983;29;20470;-75
2021/06/28 05:46:00;;;;;;;9.23;6.70;;;22.40;96.60;;;;;;4858515;29;20022;-75
2021/06/28 05:48:26;;;;;;;8.35;6.50;;;22.60;96.10;;;;;;4859445;29;20161;-75
2021/06/28 05:50:52;;;;;;;10.55;7.00;;;22.90;95.70;;;;;;4858647;29;20486;-75
2021/06/28 05:53:17;;;;;;;7.35;6.13;;;23.00;95.40;;;;;;4858866;29;20029;-76
2021/06/28 05:55:43;;;;;;;11.43;8.93;;;23.20;94.90;;;;;;4861796;29;20385;-76
2021/06/28 05:58:08;;;;;;;9.10;6.90;;;23.20;94.60;;;;;;4858030;29;20042;-76
2021/06/28 06:00:34;;;;;;;10.57;7.20;;;23.30;94.40;;;;;;4858554;29;20064;-76
2021/06/28 06:03:00;;;;;;;6.68;6.03;;;23.30;93.80;;;;;;4859512;29;20068;-76
2021/06/28 06:05:27;;;;;;;13.82;9.02;;;23.30;93.60;;;;;;4858564;29;20040;-75
2021/06/28 06:07:52;;;;;;;7.38;6.60;;;23.20;93.80;;;;;;4855721;29;20490;-76
2021/06/28 06:10:19;;;;;;;9.20;7.50;;;23.20;93.40;;;;;;4858573;29;20068;-74
2021/06/28 06:12:44;;;;;;;7.28;6.57;;;23.30;93.10;;;;;;4858703;29;20051;-74
2021/06/28 06:15:12;;;;;;;7.60;6.90;;;23.40;93.00;;;;;;4857614;29;20747;-74
2021/06/28 06:17:38;;;;;;;8.65;6.03;;;23.40;92.80;;;;;;4861016;29;20075;-73
2021/06/28 06:20:05;;;;;;;5.97;5.00;;;23.50;92.50;;;;;;4857902;29;20043;-73
2021/06/28 06:22:31;;;;;;;8.90;7.85;;;23.50;92.30;;;;;;4860262;29;20037;-75
2021/06/28 06:24:57;;;;;;;11.32;6.47;;;23.90;92.40;;;;;;4860591;29;20096;-75
2021/06/28 06:27:22;;;;;;;9.07;6.65;;;24.00;91.50;;;;;;4858017;29;20061;-76
2021/06/28 06:29:48;;;;;;;6.82;5.95;;;24.20;91.40;;;;;;4854971;29;20079;-80
2021/06/28 06:32:14;;;;;;;8.80;7.20;;;24.20;91.00;;;;;;4859020;29;20104;-80
2021/06/28 06:34:40;;;;;;;12.90;7.45;;;24.30;91.20;;;;;;4858243;29;20044;-81
2021/06/28 06:37:05;;;;;;;10.80;7.32;;;24.70;90.20;;;;;;4858453;29;20402;-80
2021/06/28 06:39:32;;;;;;;6.75;6.10;;;25.80;87.10;;;;;;4858286;29;20032;-80
2021/06/28 06:41:59;;;;;;;7.38;6.30;;;25.80;88.00;;;;;;4859381;29;20053;-80
2021/06/28 06:44:25;;;;;;;12.27;6.90;;;27.00;84.70;;;;;;4856289;29;20183;-81
2021/06/28 06:46:51;;;;;;;7.78;6.40;;;29.10;78.40;;;;;;4859372;29;20068;-81
2021/06/28 06:49:17;;;;;;;7.25;6.50;;;31.50;66.90;;;;;;4861823;29;20065;-81
2021/06/28 06:51:43;;;;;;;7.80;6.88;;;31.60;66.20;;;;;;4861047;29;20040;-81
2021/06/28 06:54:10;;;;;;;8.55;5.75;;;33.00;61.90;;;;;;4863509;29;20033;-84
2021/06/28 06:56:36;;;;;;;7.53;5.60;;;34.00;59.20;;;;;;4862413;29;20061;-84
2021/06/28 06:59:01;;;;;;;8.93;5.78;;;35.00;56.60;;;;;;4861131;29;20079;-82
2021/06/28 07:01:27;;;;;;;8.50;6.82;;;35.80;51.60;;;;;;4860691;29;20022;-83
2021/06/28 07:03:53;;;;;;;6.47;5.88;;;35.80;52.10;;;;;;4860466;29;20029;-83
2021/06/28 07:06:19;;;;;;;7.53;5.65;;;36.50;50.60;;;;;;4849080;29;20292;-82
2021/06/28 07:08:44;;;;;;;6.38;5.80;;;37.00;50.10;;;;;;4872386;29;20068;-77
2021/06/28 07:11:13;;;;;;;14.60;13.25;;;37.20;49.40;;;;;;4865976;29;20037;-76
2021/06/28 07:13:40;;;;;;;19.77;17.70;;;37.60;48.40;;;;;;4859144;29;20034;-77
2021/06/28 07:16:06;;;;;;;7.40;6.78;;;38.20;48.00;;;;;;4850710;29;20032;-85
2021/06/28 07:18:32;;;;;;;8.13;7.20;;;38.70;47.50;;;;;;4858553;29;20026;-85
2021/06/28 07:20:58;;;;;;;7.10;6.20;;;37.70;47.70;;;;;;4858263;29;20112;-84
2021/06/28 07:23:23;;;;;;;7.18;6.28;;;37.80;47.10;;;;;;4858567;29;20112;-84
2021/06/28 07:25:49;;;;;;;6.38;5.68;;;37.80;47.10;;;;;;4858409;29;20026;-84
2021/06/28 07:28:14;;;;;;;8.68;6.78;;;37.90;46.80;;;;;;4862475;29;20174;-84
2021/06/28 07:30:49;;;;;;;13.15;9.63;;;38.20;46.70;;;;;;4858743;29;20032;-85
2021/06/28 07:33:15;;;;;;;9.00;8.15;;;37.80;46.50;;;;;;4857888;29;20037;-85
2021/06/28 07:35:41;;;;;;;7.80;7.00;;;37.90;46.30;;;;;;4858011;29;20542;-85
2021/06/28 07:38:06;;;;;;;6.63;6.13;;;37.40;47.00;;;;;;4857717;29;20037;-84
2021/06/28 07:40:32;;;;;;;6.78;6.18;;;37.60;46.70;;;;;;4840904;29;20090;-83
2021/06/28 07:42:57;;;;;;;6.68;5.65;;;37.70;45.80;;;;;;4856477;29;20514;-83
2021/06/28 07:45:24;;;;;;;7.13;6.30;;;37.90;45.60;;;;;;4858164;29;20448;-83
2021/06/28 07:47:50;;;;;;;6.28;5.70;;;38.60;45.00;;;;;;4857747;29;20179;-83
2021/06/28 07:50:16;;;;;;;4.22;3.92;;;39.30;44.40;;;;;;4860866;29;20112;-83
2021/06/28 07:52:42;;;;;;;5.38;4.97;;;39.20;42.70;;;;;;4858340;29;20029;-83
2021/06/28 07:55:11;;;;;;;5.80;4.72;;;39.30;43.10;;;;;;4858356;29;20384;-84
2021/06/28 07:57:37;;;;;;;6.40;5.85;;;39.20;43.20;;;;;;4856644;29;20049;-83
2021/06/28 08:00:12;;;;;;;6.28;5.68;;;39.10;43.30;;;;;;4859630;29;20085;-83
2021/06/28 08:02:38;;;;;;;5.75;5.30;;;38.90;42.70;;;;;;4857079;29;20057;-81
2021/06/28 08:05:06;;;;;;;6.00;5.43;;;38.60;43.00;;;;;;4857421;29;20057;-82
2021/06/28 08:07:31;;;;;;;6.03;5.18;;;38.40;43.80;;;;;;4857994;29;20029;-82
2021/06/28 08:09:57;;;;;;;6.28;5.68;;;38.20;42.90;;;;;;4858802;29;20037;-82
2021/06/28 08:12:22;;;;;;;4.13;3.78;;;38.10;42.60;;;;;;4859374;29;20025;-82
2021/06/28 08:14:48;;;;;;;8.48;5.00;;;38.40;41.70;;;;;;4860479;29;20364;-81
2021/06/28 08:17:13;;;;;;;5.70;4.32;;;36.70;42.80;;;;;;4863418;29;20249;-82
2021/06/28 08:19:42;;;;;;;6.32;5.72;;;36.90;43.10;;;;;;4866318;29;20029;-82
2021/06/28 08:22:09;;;;;;;6.77;6.13;;;36.30;44.10;;;;;;4868541;29;20030;-82
2021/06/28 08:24:35;;;;;;;4.53;4.13;;;37.40;43.10;;;;;;4867363;29;20033;-82
2021/06/28 08:27:00;;;;;;;5.70;5.22;;;38.10;42.60;;;;;;4866306;29;20049;-82
2021/06/28 08:29:26;;;;;;;5.50;5.00;;;38.70;41.90;;;;;;4866957;29;20029;-81
2021/06/28 08:31:51;;;;;;;5.30;4.07;;;37.90;41.70;;;;;;4868368;29;20033;-82
2021/06/28 08:34:17;;;;;;;5.75;5.20;;;37.90;42.80;;;;;;4872403;29;20038;-82
2021/06/28 08:36:45;;;;;;;5.10;4.70;;;37.70;42.20;;;;;;4876700;29;20044;-82
2021/06/28 08:39:12;;;;;;;6.53;3.67;;;37.90;41.30;;;;;;4878543;29;20037;-82
2021/06/28 08:41:39;;;;;;;5.82;4.78;;;38.10;41.80;;;;;;4876739;29;20026;-81
2021/06/28 08:44:06;;;;;;;4.95;4.45;;;37.70;42.00;;;;;;4873674;29;20033;-81
2021/06/28 08:46:32;;;;;;;6.40;5.50;;;38.30;42.00;;;;;;4875467;29;20030;-81
2021/06/28 08:48:59;;;;;;;5.97;5.47;;;37.60;42.60;;;;;;4876379;29;20062;-80
2021/06/28 08:51:25;;;;;;;6.35;5.38;;;38.20;41.70;;;;;;4880526;29;20078;-81
2021/06/28 08:53:54;;;;;;;6.20;4.00;;;38.50;41.20;;;;;;4879052;29;20128;-81
2021/06/28 08:56:20;;;;;;;;;;;37.50;41.30;;;;;;4884382;29;20041;-82
2021/06/28 08:58:46;;;;;;;4.30;3.90;;;36.80;41.70;;;;;;4891434;29;19920;-83
2021/06/28 09:01:12;;;;;;;4.35;3.95;;;36.90;42.00;;;;;;4884770;29;20097;-81
2021/06/28 09:03:37;;;;;;;5.95;5.32;;;37.00;41.70;;;;;;4883179;29;20416;-81
2021/06/28 09:06:06;;;;;;;5.13;4.10;;;37.70;41.90;;;;;;4875419;29;20041;-82
2021/06/28 09:08:34;;;;;;;7.18;6.57;;;38.30;42.30;;;;;;4872658;29;20035;-84
2021/06/28 09:11:00;;;;;;;5.28;4.78;;;38.30;41.60;;;;;;4874924;29;20041;-82
2021/06/28 09:13:40;;;;;;;4.50;4.10;;;38.60;42.20;;;;;;4866988;29;20447;-82
2021/06/28 09:16:21;;;;;;;7.05;4.93;;;40.60;40.90;;;;;;4863503;29;20087;-83
2021/06/28 09:18:59;;;;;;;5.40;4.97;;;40.50;40.20;;;;;;4873897;29;20030;-81
2021/06/28 09:21:26;;;;;;;4.82;4.40;;;40.20;40.10;;;;;;4874328;29;20036;-83
2021/06/28 09:23:51;;;;;;;6.00;4.68;;;39.70;40.30;;;;;;4874200;29;20112;-81
2021/06/28 09:26:19;;;;;;;5.55;4.22;;;37.70;41.80;;;;;;4863841;29;20056;-81
2021/06/28 09:28:48;;;;;;;5.85;4.40;;;37.40;41.70;;;;;;4868270;29;20036;-82
2021/06/28 09:31:38;;;;;;;5.90;5.32;;;37.20;42.00;;;;;;4863922;29;20115;-81
2021/06/28 09:34:05;;;;;;;5.75;4.40;;;37.90;41.70;;;;;;4863624;29;20034;-81
2021/06/28 09:36:31;;;;;;;6.43;5.93;;;39.40;41.00;;;;;;4863749;29;20022;-82
2021/06/28 09:38:57;;;;;;;5.85;5.22;;;38.00;41.20;;;;;;4862005;29;20162;-82
2021/06/28 09:41:34;;;;;;;7.18;6.53;;;37.90;41.60;;;;;;4868628;29;20040;-81
2021/06/28 09:44:06;;;;;;;6.68;6.07;;;38.00;41.70;;;;;;4875961;29;20022;-81
2021/06/28 09:46:32;;;;;;;5.88;5.38;;;38.80;40.80;;;;;;4860340;29;20120;-83
2021/06/28 09:48:59;;;;;;;6.28;4.90;;;39.50;40.20;;;;;;4858467;29;20081;-82
2021/06/28 09:51:35;;;;;;;5.38;4.13;;;38.50;40.50;;;;;;4860043;29;20034;-82
2021/06/28 09:54:08;;;;;;;5.60;4.60;;;37.40;41.70;;;;;;4852407;29;20394;-83
2021/06/28 09:56:38;;;;;;;5.70;4.50;;;38.60;41.30;;;;;;4839536;29;20444;-82
2021/06/28 09:59:36;;;;;;;5.63;5.22;;;38.50;41.20;;;;;;4859908;29;20037;-83
2021/06/28 10:02:16;;;;;;;4.20;3.80;;;38.10;41.10;;;;;;4849455;29;20774;-83
2021/06/28 10:04:46;;;;;;;;;;;36.90;41.80;;;;;;4857040;29;20375;-84
2021/06/28 10:07:26;;;;;;;3.80;3.50;;;38.00;41.90;;;;;;4861095;29;19916;-83
2021/06/28 10:10:16;;;;;;;4.63;4.22;;;39.10;40.30;;;;;;4859205;29;20029;-83
2021/06/28 10:12:48;;;;;;;4.15;3.72;;;39.20;40.50;;;;;;4864617;29;20029;-84
2021/06/28 10:15:17;;;;;;;4.80;3.90;;;40.30;39.90;;;;;;4864382;29;20112;-83
2021/06/28 10:17:44;;;;;;;;;;;41.00;38.80;;;;;;4863338;29;20052;-84
2021/06/28 10:20:14;;;;;;;4.15;3.80;;;39.50;38.20;;;;;;4865674;29;19939;-83
2021/06/28 10:22:41;;;;;;;4.80;4.40;;;40.10;38.60;;;;;;4862272;29;20208;-83
2021/06/28 10:25:08;;;;;;;5.65;4.10;;;39.60;38.80;;;;;;4866928;29;20032;-83
2021/06/28 10:27:35;;;;;;;5.20;4.70;;;38.20;39.60;;;;;;4862775;29;20056;-84
2021/06/28 10:30:05;;;;;;;5.40;4.15;;;37.40;40.50;;;;;;4865251;29;20033;-83
2021/06/28 10:32:31;;;;;;;3.80;3.45;;;38.00;39.30;;;;;;4865535;29;20091;-84
2021/06/28 10:34:57;;;;;;;4.35;3.30;;;38.30;39.30;;;;;;4866841;29;20487;-82
2021/06/28 10:37:43;;;;;;;3.38;2.95;;;39.40;38.40;;;;;;4863981;29;20033;-83
2021/06/28 10:40:14;;;;;;;3.10;2.80;;;39.80;37.00;;;;;;4843945;29;20244;-81
2021/06/28 10:42:46;;;;;;;3.83;3.53;;;38.50;37.80;;;;;;4858045;29;20033;-83
2021/06/28 10:45:15;;;;;;;3.50;3.20;;;38.50;38.30;;;;;;4861427;29;20433;-82
2021/06/28 10:48:01;;;;;;;4.35;3.95;;;38.10;38.30;;;;;;4860403;29;20040;-82
2021/06/28 10:51:00;;;;;;;5.35;3.50;;;36.70;39.00;;;;;;4858790;29;20068;-82
2021/06/28 10:53:34;;;;;;;6.45;3.60;;;35.00;40.80;;;;;;4862562;29;20406;-83
2021/06/28 10:56:32;;;;;;;3.75;3.45;;;34.50;41.00;;;;;;4859535;29;20122;-83
2021/06/28 10:59:16;;;;;;;4.20;3.80;;;34.20;42.20;;;;;;4860420;29;20117;-83
2021/06/28 11:01:47;;;;;;;5.15;3.90;;;34.20;42.00;;;;;;4855830;29;20112;-83
2021/06/28 11:04:28;;;;;;;4.65;3.35;;;33.50;43.10;;;;;;4859599;29;20725;-84
2021/06/28 11:07:00;;;;;;;4.40;3.80;;;33.50;43.40;;;;;;4864967;29;20406;-84
2021/06/28 11:09:51;;;;;;;4.85;3.58;;;33.20;43.10;;;;;;4861377;29;20450;-84
2021/06/28 11:12:21;;;;;;;3.97;3.33;;;33.40;42.70;;;;;;4858394;29;20041;-83
2021/06/28 11:15:24;;;;;;;4.47;4.07;;;33.20;43.00;;;;;;4860195;29;20076;-82
2021/06/28 11:17:52;;;;;;;5.35;3.85;;;33.10;43.10;;;;;;4866129;29;20041;-82
2021/06/28 11:20:37;;;;;;;4.82;3.90;;;33.40;42.80;;;;;;4859942;29;20026;-83
2021/06/28 11:23:19;;;;;;;5.40;4.47;;;33.20;43.40;;;;;;4854656;29;20033;-83
2021/06/28 11:25:53;;;;;;;5.95;3.78;;;33.40;42.80;;;;;;4856722;29;20030;-84
2021/06/28 11:28:26;;;;;;;5.25;3.65;;;33.20;42.30;;;;;;4859076;29;20506;-82
2021/06/28 11:30:55;;;;;;;5.85;3.30;;;32.60;43.30;;;;;;4855946;29;20036;-83
2021/06/28 11:33:40;;;;;;;6.28;4.28;;;32.30;43.40;;;;;;4857892;29;20057;-83
2021/06/28 11:36:32;;;;;;;7.53;4.57;;;32.00;43.00;;;;;;4852404;29;20030;-84
2021/06/28 11:39:00;;;;;;;4.60;3.45;;;31.50;43.90;;;;;;4857820;29;20117;-83
2021/06/28 11:41:28;;;;;;;7.18;3.83;;;31.70;43.10;;;;;;4859362;29;20029;-83
2021/06/28 11:43:55;;;;;;;4.07;3.42;;;31.70;43.60;;;;;;4858136;29;20367;-82
2021/06/28 11:46:48;;;;;;;3.28;2.95;;;31.90;43.50;;;;;;4858070;29;20447;-84
2021/06/28 11:49:25;;;;;;;4.68;4.20;;;32.20;43.20;;;;;;4865442;29;20081;-83
2021/06/28 11:51:52;;;;;;;4.32;3.90;;;32.20;44.50;;;;;;4858953;29;20090;-83
2021/06/28 11:54:20;;;;;;;4.60;4.20;;;32.40;45.40;;;;;;4861195;29;20041;-84
2021/06/28 11:56:47;;;;;;;4.53;4.13;;;32.70;44.10;;;;;;4857956;29;20052;-84
2021/06/28 11:59:33;;;;;;;7.80;7.10;;;33.10;43.40;;;;;;4858335;29;20048;-84
2021/06/28 12:02:04;;;;;;;8.05;5.25;;;33.20;43.40;;;;;;4859405;29;20037;-85
2021/06/28 12:04:32;;;;;;;5.13;4.60;;;33.50;42.40;;;;;;4842229;29;20025;-83
2021/06/28 12:07:00;;;;;;;3.22;2.92;;;33.60;42.10;;;;;;4858987;29;20026;-83
2021/06/28 12:09:31;;;;;;;10.95;4.38;;;33.60;42.10;;;;;;4859487;29;20038;-82
2021/06/28 12:12:15;;;;;;;5.00;3.67;;;34.20;43.70;;;;;;4858486;29;20125;-84
2021/06/28 12:14:49;;;;;;;4.63;3.55;;;34.50;41.70;;;;;;4857874;29;20093;-84
2021/06/28 12:17:23;;;;;;;4.32;3.92;;;35.00;42.90;;;;;;4848544;29;20406;-84
2021/06/28 12:19:52;;;;;;;5.13;4.05;;;35.10;41.10;;;;;;4858248;29;20025;-82
2021/06/28 12:22:21;;;;;;;5.93;4.18;;;35.00;42.40;;;;;;4858841;29;20033;-82
2021/06/28 12:24:49;;;;;;;7.10;2.95;;;34.80;43.70;;;;;;4858822;29;20117;-82
2021/06/28 12:27:20;;;;;;;7.32;6.05;;;34.40;41.20;;;;;;4859352;29;20033;-82
2021/06/28 12:29:47;;;;;;;9.13;5.35;;;33.60;42.20;;;;;;4865870;29;20026;-82
2021/06/28 12:32:21;;;;;;;4.32;3.63;;;32.60;42.70;;;;;;4861585;29;20032;-82
2021/06/28 12:34:52;;;;;;;6.47;3.45;;;32.20;43.10;;;;;;4862784;29;20428;-82
2021/06/28 12:37:24;;;;;;;6.10;5.38;;;32.40;43.00;;;;;;4861865;29;20030;-83
2021/06/28 12:39:53;;;;;;;5.10;3.95;;;32.50;43.30;;;;;;4862894;29;20030;-83
2021/06/28 12:42:22;;;;;;;6.82;5.50;;;32.20;43.80;;;;;;4862872;29;20495;-83
2021/06/28 12:44:49;;;;;;;9.07;4.80;;;32.90;44.60;;;;;;4862201;29;20230;-82
2021/06/28 12:47:18;;;;;;;6.43;4.50;;;33.20;44.20;;;;;;4865374;29;20497;-84
2021/06/28 12:49:47;;;;;;;3.40;3.03;;;34.70;43.90;;;;;;4867546;29;20021;-85
2021/06/28 12:52:31;;;;;;;4.45;4.05;;;35.40;41.70;;;;;;4868941;29;20037;-84